createdAt,value
2022-12-29T00:00:16.279Z,40.77
2022-12-29T00:01:16.263Z,39.00
2022-12-29T00:02:16.294Z,38.47
2022-12-29T00:03:16.343Z,38.91
2022-12-29T00:04:16.329Z,40.47
2022-12-29T00:05:16.254Z,37.36
2022-12-29T00:06:16.226Z,38.76
2022-12-29T00:07:48.156Z,38.86
2022-12-29T00:08:16.311Z,40.12
2022-12-29T00:09:16.210Z,40.40
2022-12-29T00:10:16.213Z,39.69
2022-12-29T00:11:16.213Z,38.21
2022-12-29T00:12:16.156Z,39.78
2022-12-29T00:13:16.164Z,39.90
2022-12-29T00:14:19.228Z,38.55
2022-12-29T00:15:17.188Z,39.10
2022-12-29T00:16:16.162Z,38.75
2022-12-29T00:17:16.145Z,39.90
2022-12-29T00:18:16.123Z,37.48
2022-12-29T00:19:16.143Z,36.68
2022-12-29T00:20:16.109Z,39.51
2022-12-29T00:21:16.078Z,40.63
2022-12-29T00:22:16.066Z,38.79
2022-12-29T00:23:16.336Z,39.75
2022-12-29T00:24:16.162Z,39.50
2022-12-29T00:25:16.070Z,41.22
2022-12-29T00:26:16.036Z,37.80
2022-12-29T00:27:16.040Z,40.16
2022-12-29T00:28:16.101Z,40.86
2022-12-29T00:29:16.002Z,39.96
2022-12-29T00:30:16.028Z,36.74
2022-12-29T00:31:16.033Z,37.13
2022-12-29T00:32:15.985Z,37.81
2022-12-29T00:33:15.968Z,40.72
2022-12-29T00:34:15.963Z,36.57
2022-12-29T00:35:15.962Z,39.28
2022-12-29T00:36:15.942Z,41.02
2022-12-29T00:37:15.926Z,41.51
2022-12-29T00:38:15.927Z,41.31
2022-12-29T00:39:15.916Z,40.50
2022-12-29T00:40:15.926Z,40.24
2022-12-29T00:41:15.906Z,41.42
2022-12-29T00:42:15.885Z,40.84
2022-12-29T00:43:15.882Z,42.32
2022-12-29T00:44:15.873Z,40.00
2022-12-29T00:45:15.876Z,37.83
2022-12-29T00:46:19.776Z,40.13
2022-12-29T00:47:16.911Z,41.43
2022-12-29T00:48:15.835Z,39.36
2022-12-29T00:49:15.830Z,40.09
2022-12-29T00:50:15.833Z,39.82
2022-12-29T00:51:15.816Z,38.33
2022-12-29T00:52:15.816Z,40.45
2022-12-29T00:53:15.809Z,41.44
2022-12-29T00:54:15.794Z,39.09
2022-12-29T00:55:15.794Z,42.50
2022-12-29T00:56:15.766Z,40.85
2022-12-29T00:57:15.763Z,39.95
2022-12-29T00:58:15.751Z,37.88
2022-12-29T00:59:15.737Z,40.36
2022-12-29T01:00:15.740Z,39.65
2022-12-29T01:01:15.744Z,40.24
2022-12-29T01:02:15.834Z,40.37
2022-12-29T01:03:15.725Z,36.81
2022-12-29T01:04:15.711Z,38.08
2022-12-29T01:05:15.694Z,40.31
2022-12-29T01:06:15.678Z,39.32
2022-12-29T01:07:15.662Z,38.85
2022-12-29T01:08:15.660Z,41.61
2022-12-29T01:09:15.651Z,40.43
2022-12-29T01:10:15.735Z,40.34
2022-12-29T01:11:15.651Z,40.55
2022-12-29T01:12:15.671Z,35.39
2022-12-29T01:13:15.624Z,39.09
2022-12-29T01:14:15.612Z,35.77
2022-12-29T01:15:15.627Z,37.44
2022-12-29T01:16:15.676Z,38.35
2022-12-29T01:17:15.627Z,38.40
2022-12-29T01:18:15.616Z,40.60
2022-12-29T01:19:15.563Z,39.90
2022-12-29T01:20:15.574Z,40.05
2022-12-29T01:21:15.576Z,37.85
2022-12-29T01:22:15.560Z,36.72
2022-12-29T01:23:15.534Z,39.24
2022-12-29T01:24:15.514Z,41.63
2022-12-29T01:25:15.555Z,40.16
2022-12-29T01:26:15.499Z,38.31
2022-12-29T01:27:15.494Z,38.07
2022-12-29T01:28:15.484Z,39.42
2022-12-29T01:29:15.475Z,40.46
2022-12-29T01:30:15.484Z,37.64
2022-12-29T01:31:15.482Z,36.56
2022-12-29T01:32:15.462Z,38.04
2022-12-29T01:33:15.439Z,37.65
2022-12-29T01:34:15.427Z,38.58
2022-12-29T01:35:15.452Z,36.56
2022-12-29T01:36:15.413Z,38.63
2022-12-29T01:37:15.400Z,38.34
2022-12-29T01:38:15.394Z,41.68
2022-12-29T01:39:15.390Z,41.35
2022-12-29T01:40:15.382Z,37.92
2022-12-29T01:41:15.366Z,41.29
2022-12-29T01:42:15.370Z,42.64
2022-12-29T01:43:15.371Z,39.52
2022-12-29T01:44:15.333Z,38.40
2022-12-29T01:45:15.370Z,42.35
2022-12-29T01:46:15.326Z,41.52
2022-12-29T01:47:15.314Z,39.20
2022-12-29T01:48:15.296Z,39.06
2022-12-29T01:49:15.342Z,39.86
2022-12-29T01:50:15.295Z,42.41
2022-12-29T01:51:15.274Z,40.16
2022-12-29T01:52:16.260Z,37.53
2022-12-29T01:53:15.253Z,37.30
2022-12-29T01:54:15.254Z,38.49
2022-12-29T01:55:15.256Z,40.87
2022-12-29T01:56:15.229Z,39.96
2022-12-29T01:57:15.275Z,36.69
2022-12-29T01:58:15.208Z,39.17
2022-12-29T01:59:15.215Z,39.64
2022-12-29T02:00:15.315Z,39.33
2022-12-29T02:01:15.201Z,37.99
2022-12-29T02:02:15.304Z,38.03
2022-12-29T02:03:15.258Z,40.30
2022-12-29T02:04:15.156Z,37.91
2022-12-29T02:05:15.214Z,35.11
2022-12-29T02:06:15.143Z,36.18
2022-12-29T02:07:15.121Z,37.84
2022-12-29T02:08:15.123Z,41.53
2022-12-29T02:09:15.108Z,37.96
2022-12-29T02:10:15.110Z,41.12
2022-12-29T02:11:15.100Z,36.74
2022-12-29T02:12:15.083Z,38.09
2022-12-29T02:13:15.072Z,42.01
2022-12-29T02:14:15.050Z,40.79
2022-12-29T02:15:15.064Z,37.34
2022-12-29T02:16:15.175Z,38.89
2022-12-29T02:17:15.032Z,39.68
2022-12-29T02:18:15.069Z,38.00
2022-12-29T02:19:15.020Z,41.91
2022-12-29T02:20:15.016Z,41.22
2022-12-29T02:21:14.997Z,38.52
2022-12-29T02:22:14.984Z,40.97
2022-12-29T02:23:14.973Z,38.58
2022-12-29T02:24:14.978Z,37.52
2022-12-29T02:25:14.956Z,39.79
2022-12-29T02:26:14.962Z,34.46
2022-12-29T02:27:14.946Z,35.39
2022-12-29T02:28:14.932Z,38.07
2022-12-29T02:29:14.931Z,40.16
2022-12-29T02:30:14.918Z,40.42
2022-12-29T02:31:14.960Z,40.70
2022-12-29T02:32:14.912Z,41.18
2022-12-29T02:33:14.905Z,41.33
2022-12-29T02:34:14.879Z,41.76
2022-12-29T02:35:14.875Z,41.72
2022-12-29T02:36:14.887Z,40.03
2022-12-29T02:37:14.852Z,38.49
2022-12-29T02:38:14.848Z,39.57
2022-12-29T02:39:14.895Z,38.16
2022-12-29T02:40:14.831Z,40.87
2022-12-29T02:41:14.978Z,42.04
2022-12-29T02:42:14.816Z,38.78
2022-12-29T02:43:14.899Z,39.34
2022-12-29T02:44:14.806Z,39.92
2022-12-29T02:45:14.790Z,37.93
2022-12-29T02:46:14.826Z,37.80
2022-12-29T02:47:14.765Z,41.81
2022-12-29T02:48:14.751Z,39.53
2022-12-29T02:49:14.747Z,36.48
2022-12-29T02:50:14.740Z,39.64
2022-12-29T02:51:14.743Z,35.42
2022-12-29T02:52:14.724Z,38.07
2022-12-29T02:53:14.828Z,38.86
2022-12-29T02:54:14.699Z,40.48
2022-12-29T02:55:14.699Z,40.34
2022-12-29T02:56:14.704Z,42.13
2022-12-29T02:57:14.810Z,41.51
2022-12-29T02:58:14.669Z,38.04
2022-12-29T02:59:14.696Z,38.88
2022-12-29T03:00:14.683Z,40.39
2022-12-29T03:01:14.692Z,37.29
2022-12-29T03:02:14.764Z,38.60
2022-12-29T03:03:14.739Z,40.11
2022-12-29T03:04:14.615Z,38.31
2022-12-29T03:05:14.608Z,41.33
2022-12-29T03:06:14.619Z,38.13
2022-12-29T03:07:14.583Z,38.28
2022-12-29T03:08:14.583Z,41.40
2022-12-29T03:09:19.086Z,39.15
2022-12-29T03:10:14.567Z,36.13
2022-12-29T03:11:14.557Z,40.96
2022-12-29T03:12:14.579Z,40.60
2022-12-29T03:13:14.536Z,42.23
2022-12-29T03:14:14.516Z,37.32
2022-12-29T03:15:14.506Z,39.47
2022-12-29T03:16:14.619Z,40.71
2022-12-29T03:17:14.554Z,37.98
2022-12-29T03:18:14.485Z,41.70
2022-12-29T03:19:14.490Z,39.36
2022-12-29T03:20:14.465Z,40.97
2022-12-29T03:21:14.469Z,42.03
2022-12-29T03:22:14.451Z,38.08
2022-12-29T03:23:14.446Z,40.49
2022-12-29T03:24:14.457Z,38.54
2022-12-29T03:25:14.423Z,40.66
2022-12-29T03:26:14.542Z,40.01
2022-12-29T03:27:14.410Z,41.27
2022-12-29T03:28:14.424Z,41.76
2022-12-29T03:29:14.401Z,42.46
2022-12-29T03:30:14.382Z,43.30
2022-12-29T03:31:14.472Z,40.91
2022-12-29T03:32:14.373Z,37.62
2022-12-29T03:33:14.377Z,40.59
2022-12-29T03:34:14.358Z,42.04
2022-12-29T03:35:14.337Z,39.31
2022-12-29T03:36:14.344Z,41.06
2022-12-29T03:37:14.347Z,40.02
2022-12-29T03:38:14.317Z,41.13
2022-12-29T03:39:14.397Z,40.69
2022-12-29T03:40:14.299Z,39.79
2022-12-29T03:41:14.298Z,40.46
2022-12-29T03:42:14.284Z,40.17
2022-12-29T03:43:14.268Z,40.54
2022-12-29T03:44:14.262Z,41.70
2022-12-29T03:45:14.260Z,35.99
2022-12-29T03:46:14.296Z,39.13
2022-12-29T03:47:14.249Z,40.40
2022-12-29T03:48:15.228Z,36.32
2022-12-29T03:49:14.219Z,38.38
2022-12-29T03:50:14.209Z,39.09
2022-12-29T03:51:14.213Z,37.55
2022-12-29T03:52:14.192Z,41.50
2022-12-29T03:53:14.191Z,41.28
2022-12-29T03:54:14.168Z,41.17
2022-12-29T03:55:15.178Z,43.03
2022-12-29T03:56:14.170Z,44.03
2022-12-29T03:57:14.155Z,40.25
2022-12-29T03:58:14.158Z,43.57
2022-12-29T03:59:14.137Z,43.08
2022-12-29T04:00:14.126Z,42.33
2022-12-29T04:01:14.327Z,40.78
2022-12-29T04:02:14.470Z,38.81
2022-12-29T04:03:14.116Z,39.05
2022-12-29T04:04:14.088Z,38.65
2022-12-29T04:05:14.080Z,42.44
2022-12-29T04:06:14.080Z,41.09
2022-12-29T04:07:14.069Z,42.87
2022-12-29T04:08:14.052Z,41.79
2022-12-29T04:09:14.043Z,41.25
2022-12-29T04:10:14.029Z,43.03
2022-12-29T04:11:14.030Z,40.38
2022-12-29T04:12:14.032Z,36.56
2022-12-29T04:13:14.010Z,38.58
2022-12-29T04:14:13.996Z,38.78
2022-12-29T04:15:13.990Z,40.44
2022-12-29T04:16:14.064Z,41.27
2022-12-29T04:17:13.985Z,40.30
2022-12-29T04:18:13.961Z,39.79
2022-12-29T04:19:13.954Z,42.13
2022-12-29T04:20:13.962Z,42.14
2022-12-29T04:21:13.948Z,42.49
2022-12-29T04:22:13.935Z,42.21
2022-12-29T04:23:13.919Z,42.21
2022-12-29T04:24:13.905Z,41.31
2022-12-29T04:25:13.907Z,41.01
2022-12-29T04:26:13.898Z,40.61
2022-12-29T04:27:13.886Z,42.37
2022-12-29T04:28:13.875Z,42.56
2022-12-29T04:29:13.875Z,42.84
2022-12-29T04:30:13.863Z,42.49
2022-12-29T04:31:13.889Z,40.80
2022-12-29T04:32:13.847Z,40.91
2022-12-29T04:33:13.843Z,39.44
2022-12-29T04:34:13.822Z,42.54
2022-12-29T04:35:13.812Z,43.35
2022-12-29T04:36:13.815Z,43.91
2022-12-29T04:37:13.800Z,42.18
2022-12-29T04:38:13.827Z,44.48
2022-12-29T04:39:13.769Z,44.87
2022-12-29T04:40:13.781Z,41.45
2022-12-29T04:41:13.766Z,41.92
2022-12-29T04:42:13.748Z,41.36
2022-12-29T04:43:13.755Z,41.96
2022-12-29T04:44:13.740Z,43.86
2022-12-29T04:45:13.720Z,39.49
2022-12-29T04:46:13.751Z,42.49
2022-12-29T04:47:13.706Z,43.39
2022-12-29T04:48:13.714Z,40.93
2022-12-29T04:49:13.684Z,42.55
2022-12-29T04:50:13.680Z,42.95
2022-12-29T04:51:13.926Z,38.58
2022-12-29T04:52:13.665Z,43.84
2022-12-29T04:53:13.646Z,44.33
2022-12-29T04:54:13.637Z,42.25
2022-12-29T04:55:13.656Z,42.35
2022-12-29T04:56:13.671Z,43.29
2022-12-29T04:57:13.627Z,42.99
2022-12-29T04:58:18.970Z,42.89
2022-12-29T04:59:15.605Z,44.48
2022-12-29T05:00:13.621Z,42.99
2022-12-29T05:01:13.609Z,44.16
2022-12-29T05:02:13.629Z,39.26
2022-12-29T05:03:13.675Z,44.29
2022-12-29T05:04:13.552Z,40.85
2022-12-29T05:05:13.569Z,44.54
2022-12-29T05:06:13.577Z,42.08
2022-12-29T05:07:13.522Z,41.46
2022-12-29T05:08:13.521Z,38.55
2022-12-29T05:09:13.508Z,44.14
2022-12-29T05:10:13.519Z,43.15
2022-12-29T05:11:13.495Z,44.96
2022-12-29T05:12:13.502Z,44.09
2022-12-29T05:13:13.477Z,44.64
2022-12-29T05:14:13.463Z,43.42
2022-12-29T05:15:13.482Z,45.17
2022-12-29T05:16:13.508Z,43.23
2022-12-29T05:17:13.449Z,43.90
2022-12-29T05:18:13.429Z,45.04
2022-12-29T05:19:13.423Z,42.86
2022-12-29T05:20:13.425Z,42.38
2022-12-29T05:21:13.444Z,43.16
2022-12-29T05:22:13.397Z,44.12
2022-12-29T05:23:13.384Z,43.23
2022-12-29T05:24:13.366Z,44.29
2022-12-29T05:25:14.360Z,42.52
2022-12-29T05:26:13.363Z,43.51
2022-12-29T05:27:13.356Z,43.01
2022-12-29T05:28:13.340Z,43.04
2022-12-29T05:29:13.325Z,43.40
2022-12-29T05:30:13.329Z,41.45
2022-12-29T05:31:13.322Z,42.62
2022-12-29T05:32:13.319Z,40.77
2022-12-29T05:33:14.292Z,40.46
2022-12-29T05:34:13.303Z,43.61
2022-12-29T05:35:13.276Z,43.25
2022-12-29T05:36:13.274Z,41.70
2022-12-29T05:37:13.271Z,43.46
2022-12-29T05:38:13.247Z,44.48
2022-12-29T05:39:13.242Z,44.75
2022-12-29T05:40:13.230Z,44.36
2022-12-29T05:41:13.224Z,44.03
2022-12-29T05:42:13.222Z,42.70
2022-12-29T05:43:13.218Z,43.03
2022-12-29T05:44:13.234Z,43.88
2022-12-29T05:45:13.207Z,40.31
2022-12-29T05:46:13.195Z,41.12
2022-12-29T05:47:13.246Z,44.79
2022-12-29T05:48:13.160Z,42.72
2022-12-29T05:49:13.177Z,42.19
2022-12-29T05:50:13.147Z,40.49
2022-12-29T05:51:13.132Z,45.42
2022-12-29T05:52:13.138Z,42.24
2022-12-29T05:53:13.140Z,45.91
2022-12-29T05:54:13.119Z,43.81
2022-12-29T05:55:13.096Z,43.81
2022-12-29T05:56:13.096Z,43.73
2022-12-29T05:57:13.112Z,43.96
2022-12-29T05:58:13.070Z,42.66
2022-12-29T05:59:13.096Z,43.96
2022-12-29T06:00:13.067Z,45.31
2022-12-29T06:01:13.043Z,45.99
2022-12-29T06:02:13.310Z,43.17
2022-12-29T06:03:13.269Z,43.88
2022-12-29T06:04:13.042Z,42.41
2022-12-29T06:05:13.020Z,42.87
2022-12-29T06:06:12.999Z,42.67
2022-12-29T06:07:44.915Z,42.98
2022-12-29T06:08:13.012Z,42.16
2022-12-29T06:09:12.972Z,44.38
2022-12-29T06:10:12.972Z,43.96
2022-12-29T06:11:12.963Z,44.13
2022-12-29T06:12:12.958Z,43.69
2022-12-29T06:13:12.941Z,43.42
2022-12-29T06:14:12.930Z,42.30
2022-12-29T06:15:12.916Z,42.57
2022-12-29T06:16:12.943Z,43.21
2022-12-29T06:17:12.910Z,45.85
2022-12-29T06:18:19.553Z,43.56
2022-12-29T06:19:14.897Z,45.56
2022-12-29T06:20:12.876Z,42.82
2022-12-29T06:21:12.871Z,41.80
2022-12-29T06:22:12.888Z,44.13
2022-12-29T06:23:12.854Z,42.10
2022-12-29T06:24:12.863Z,45.33
2022-12-29T06:25:13.841Z,42.99
2022-12-29T06:26:12.831Z,46.04
2022-12-29T06:27:12.846Z,45.09
2022-12-29T06:28:12.817Z,44.99
2022-12-29T06:29:12.797Z,46.16
2022-12-29T06:30:12.806Z,44.71
2022-12-29T06:31:12.881Z,46.60
2022-12-29T06:32:12.877Z,44.50
2022-12-29T06:33:12.775Z,43.87
2022-12-29T06:34:12.766Z,42.46
2022-12-29T06:35:12.749Z,43.56
2022-12-29T06:36:12.737Z,43.68
2022-12-29T06:37:12.733Z,44.66
2022-12-29T06:38:12.720Z,45.17
2022-12-29T06:39:12.709Z,46.32
2022-12-29T06:40:12.701Z,44.90
2022-12-29T06:41:12.707Z,45.68
2022-12-29T06:42:12.695Z,44.77
2022-12-29T06:43:12.673Z,44.47
2022-12-29T06:44:12.669Z,42.92
2022-12-29T06:45:12.655Z,45.84
2022-12-29T06:46:12.702Z,44.81
2022-12-29T06:47:12.651Z,45.36
2022-12-29T06:48:12.626Z,44.86
2022-12-29T06:49:12.625Z,45.71
2022-12-29T06:50:12.611Z,44.06
2022-12-29T06:51:12.601Z,43.66
2022-12-29T06:52:13.392Z,45.85
2022-12-29T06:53:13.590Z,44.51
2022-12-29T06:54:12.575Z,46.24
2022-12-29T06:55:12.572Z,42.92
2022-12-29T06:56:12.554Z,46.19
2022-12-29T06:57:12.548Z,42.97
2022-12-29T06:58:12.542Z,45.61
2022-12-29T06:59:12.532Z,43.35
2022-12-29T07:00:12.524Z,44.54
2022-12-29T07:01:12.555Z,44.68
2022-12-29T07:02:12.801Z,44.87
2022-12-29T07:03:12.537Z,46.47
2022-12-29T07:04:12.513Z,45.66
2022-12-29T07:05:12.493Z,44.41
2022-12-29T07:06:12.496Z,43.26
2022-12-29T07:07:12.481Z,44.46
2022-12-29T07:08:12.470Z,43.88
2022-12-29T07:09:12.449Z,44.78
2022-12-29T07:10:12.451Z,44.77
2022-12-29T07:11:12.421Z,43.74
2022-12-29T07:12:12.453Z,44.99
2022-12-29T07:13:12.411Z,44.30
2022-12-29T07:14:12.395Z,44.50
2022-12-29T07:15:12.384Z,44.45
2022-12-29T07:16:12.421Z,43.20
2022-12-29T07:17:12.476Z,44.61
2022-12-29T07:18:12.359Z,44.21
2022-12-29T07:19:12.353Z,44.30
2022-12-29T07:20:12.349Z,42.37
2022-12-29T07:21:12.334Z,45.18
2022-12-29T07:22:12.336Z,42.94
2022-12-29T07:23:12.316Z,44.12
2022-12-29T07:24:12.307Z,45.05
2022-12-29T07:25:12.318Z,43.79
2022-12-29T07:26:12.291Z,42.91
2022-12-29T07:27:12.304Z,44.86
2022-12-29T07:28:12.275Z,41.90
2022-12-29T07:29:12.275Z,45.74
2022-12-29T07:30:12.273Z,42.92
2022-12-29T07:31:12.253Z,42.22
2022-12-29T07:32:12.285Z,44.79
2022-12-29T07:33:12.232Z,44.02
2022-12-29T07:34:12.221Z,44.46
2022-12-29T07:35:12.216Z,44.19
2022-12-29T07:36:12.195Z,44.35
2022-12-29T07:37:12.199Z,45.19
2022-12-29T07:38:12.181Z,41.99
2022-12-29T07:39:12.169Z,45.43
2022-12-29T07:40:12.167Z,43.37
2022-12-29T07:41:12.156Z,43.03
2022-12-29T07:42:12.155Z,42.40
2022-12-29T07:43:12.137Z,41.84
2022-12-29T07:44:12.136Z,44.30
2022-12-29T07:45:12.251Z,43.87
2022-12-29T07:46:53.516Z,43.69
2022-12-29T07:47:14.144Z,43.49
2022-12-29T07:48:12.132Z,43.13
2022-12-29T07:49:13.082Z,44.56
2022-12-29T07:50:12.102Z,44.36
2022-12-29T07:51:12.065Z,44.66
2022-12-29T07:52:12.070Z,43.60
2022-12-29T07:53:12.052Z,45.07
2022-12-29T07:54:12.040Z,43.32
2022-12-29T07:55:12.039Z,44.41
2022-12-29T07:56:12.023Z,42.98
2022-12-29T07:57:12.028Z,44.48
2022-12-29T07:58:12.006Z,44.20
2022-12-29T07:59:11.995Z,43.89
2022-12-29T08:00:11.988Z,43.22
2022-12-29T08:01:12.040Z,42.52
2022-12-29T08:02:12.135Z,42.72
2022-12-29T08:03:11.962Z,44.90
2022-12-29T08:04:11.991Z,44.51
2022-12-29T08:05:11.939Z,43.27
2022-12-29T08:06:11.935Z,44.55
2022-12-29T08:07:11.935Z,46.02
2022-12-29T08:08:11.909Z,42.93
2022-12-29T08:09:16.703Z,43.21
2022-12-29T08:10:13.906Z,43.62
2022-12-29T08:11:11.885Z,44.76
2022-12-29T08:12:11.886Z,41.99
2022-12-29T08:13:11.869Z,44.54
2022-12-29T08:14:11.866Z,44.03
2022-12-29T08:15:11.856Z,44.59
2022-12-29T08:16:11.927Z,43.43
2022-12-29T08:17:11.840Z,44.49
2022-12-29T08:18:11.827Z,46.04
2022-12-29T08:19:11.817Z,45.59
2022-12-29T08:20:11.811Z,41.86
2022-12-29T08:21:11.805Z,45.29
2022-12-29T08:22:11.786Z,44.42
2022-12-29T08:23:11.791Z,44.58
2022-12-29T08:24:11.771Z,44.80
2022-12-29T08:25:11.762Z,44.92
2022-12-29T08:26:11.753Z,45.57
2022-12-29T08:27:19.699Z,43.72
2022-12-29T08:28:13.745Z,44.62
2022-12-29T08:29:11.723Z,43.65
2022-12-29T08:30:11.716Z,44.73
2022-12-29T08:31:11.733Z,42.76
2022-12-29T08:32:11.697Z,42.42
2022-12-29T08:33:11.704Z,43.31
2022-12-29T08:34:11.688Z,44.22
2022-12-29T08:35:11.677Z,43.67
2022-12-29T08:36:11.664Z,44.14
2022-12-29T08:37:11.657Z,46.66
2022-12-29T08:38:11.656Z,44.35
2022-12-29T08:39:11.632Z,44.50
2022-12-29T08:40:11.628Z,46.06
2022-12-29T08:41:11.613Z,44.44
2022-12-29T08:42:11.615Z,45.16
2022-12-29T08:43:11.612Z,45.74
2022-12-29T08:44:11.602Z,44.15
2022-12-29T08:45:11.595Z,46.16
2022-12-29T08:46:11.634Z,45.53
2022-12-29T08:47:11.573Z,44.95
2022-12-29T08:48:11.562Z,44.73
2022-12-29T08:49:11.543Z,46.31
2022-12-29T08:50:11.542Z,47.05
2022-12-29T08:51:11.526Z,45.63
2022-12-29T08:52:11.509Z,46.76
2022-12-29T08:53:12.517Z,47.07
2022-12-29T08:54:11.502Z,49.16
2022-12-29T08:55:11.502Z,49.08
2022-12-29T08:56:11.482Z,48.72
2022-12-29T08:57:11.484Z,49.23
2022-12-29T08:58:11.483Z,48.68
2022-12-29T08:59:11.467Z,49.77
2022-12-29T09:00:11.491Z,47.21
2022-12-29T09:01:11.480Z,47.21
2022-12-29T09:02:11.569Z,46.65
2022-12-29T09:03:11.540Z,48.38
2022-12-29T09:04:16.625Z,47.85
2022-12-29T09:05:13.455Z,48.06
2022-12-29T09:06:11.396Z,48.73
2022-12-29T09:07:11.387Z,48.42
2022-12-29T09:08:11.381Z,48.77
2022-12-29T09:09:11.384Z,47.05
2022-12-29T09:10:11.379Z,47.35
2022-12-29T09:11:11.352Z,47.34
2022-12-29T09:12:11.336Z,46.45
2022-12-29T09:13:11.336Z,45.61
2022-12-29T09:14:11.332Z,47.63
2022-12-29T09:15:11.306Z,46.93
2022-12-29T09:16:11.481Z,47.00
2022-12-29T09:17:11.297Z,45.50
2022-12-29T09:18:16.270Z,46.32
2022-12-29T09:19:12.274Z,44.49
2022-12-29T09:20:11.276Z,45.33
2022-12-29T09:21:11.255Z,47.02
2022-12-29T09:22:11.253Z,47.28
2022-12-29T09:23:11.249Z,47.29
2022-12-29T09:24:11.235Z,46.70
2022-12-29T09:25:11.224Z,45.09
2022-12-29T09:26:11.217Z,48.52
2022-12-29T09:27:11.213Z,46.55
2022-12-29T09:28:11.203Z,48.30
2022-12-29T09:29:11.181Z,46.18
2022-12-29T09:30:11.176Z,46.30
2022-12-29T09:31:11.200Z,45.50
2022-12-29T09:32:17.106Z,44.99
2022-12-29T09:33:13.181Z,46.39
2022-12-29T09:34:11.137Z,47.45
2022-12-29T09:35:11.127Z,46.06
2022-12-29T09:36:11.122Z,46.31
2022-12-29T09:37:11.118Z,45.15
2022-12-29T09:38:11.113Z,44.83
2022-12-29T09:39:11.089Z,45.00
2022-12-29T09:40:11.126Z,46.44
2022-12-29T09:41:11.077Z,47.04
2022-12-29T09:42:11.070Z,42.76
2022-12-29T09:43:11.064Z,46.81
2022-12-29T09:44:11.050Z,45.79
2022-12-29T09:45:11.046Z,45.79
2022-12-29T09:46:11.092Z,44.46
2022-12-29T09:47:11.164Z,44.88
2022-12-29T09:48:11.041Z,43.88
2022-12-29T09:49:11.007Z,46.13
2022-12-29T09:50:10.987Z,45.29
2022-12-29T09:51:11.991Z,46.21
2022-12-29T09:52:10.982Z,44.94
2022-12-29T09:53:11.001Z,44.76
2022-12-29T09:54:10.969Z,44.91
2022-12-29T09:55:14.153Z,45.12
2022-12-29T09:56:11.943Z,44.75
2022-12-29T09:57:10.939Z,44.07
2022-12-29T09:58:10.947Z,46.72
2022-12-29T09:59:10.921Z,45.55
2022-12-29T10:00:10.908Z,45.66
2022-12-29T10:01:10.926Z,45.18
2022-12-29T10:02:11.129Z,45.10
2022-12-29T10:03:11.064Z,44.26
2022-12-29T10:04:10.859Z,44.70
2022-12-29T10:05:10.859Z,44.77
2022-12-29T10:06:10.850Z,43.67
2022-12-29T10:07:29.096Z,46.57
2022-12-29T10:08:17.242Z,45.31
2022-12-29T10:09:11.811Z,45.16
2022-12-29T10:10:10.803Z,46.41
2022-12-29T10:11:10.799Z,46.15
2022-12-29T10:12:10.783Z,45.03
2022-12-29T10:13:10.773Z,46.75
2022-12-29T10:14:14.016Z,45.68
2022-12-29T10:15:12.751Z,46.54
2022-12-29T10:16:10.797Z,45.93
2022-12-29T10:17:10.730Z,45.29
2022-12-29T10:18:10.717Z,46.51
2022-12-29T10:19:10.720Z,45.30
2022-12-29T10:20:10.736Z,46.41
2022-12-29T10:21:10.685Z,46.35
2022-12-29T10:22:10.696Z,45.68
2022-12-29T10:23:10.669Z,45.61
2022-12-29T10:24:10.668Z,46.91
2022-12-29T10:25:10.648Z,46.04
2022-12-29T10:26:10.637Z,45.11
2022-12-29T10:27:10.624Z,46.03
2022-12-29T10:28:10.619Z,45.92
2022-12-29T10:29:10.612Z,46.25
2022-12-29T10:30:10.593Z,46.22
2022-12-29T10:31:10.646Z,44.44
2022-12-29T10:32:10.632Z,48.29
2022-12-29T10:33:10.583Z,47.32
2022-12-29T10:34:10.567Z,46.46
2022-12-29T10:35:10.540Z,47.06
2022-12-29T10:36:10.563Z,47.07
2022-12-29T10:37:10.524Z,47.53
2022-12-29T10:38:10.533Z,47.53
2022-12-29T10:39:10.530Z,46.96
2022-12-29T10:40:10.498Z,46.19
2022-12-29T10:41:10.489Z,47.23
2022-12-29T10:42:10.501Z,46.16
2022-12-29T10:43:10.472Z,46.22
2022-12-29T10:44:10.483Z,46.57
2022-12-29T10:45:10.444Z,46.22
2022-12-29T10:46:11.525Z,47.11
2022-12-29T10:47:10.444Z,46.05
2022-12-29T10:48:10.427Z,48.14
2022-12-29T10:49:10.438Z,45.81
2022-12-29T10:50:10.413Z,46.98
2022-12-29T10:51:10.411Z,46.94
2022-12-29T10:52:10.406Z,44.40
2022-12-29T10:53:10.383Z,45.79
2022-12-29T10:54:10.389Z,46.84
2022-12-29T10:55:10.378Z,44.99
2022-12-29T10:56:10.355Z,47.21
2022-12-29T10:57:10.415Z,46.56
2022-12-29T10:58:10.902Z,47.14
2022-12-29T10:59:10.348Z,45.73
2022-12-29T11:00:10.354Z,45.84
2022-12-29T11:01:10.409Z,46.92
2022-12-29T11:02:10.467Z,44.99
2022-12-29T11:03:10.448Z,46.64
2022-12-29T11:04:10.297Z,47.61
2022-12-29T11:05:10.280Z,46.78
2022-12-29T11:06:10.281Z,46.71
2022-12-29T11:07:15.625Z,46.10
2022-12-29T11:08:12.240Z,46.47
2022-12-29T11:09:10.240Z,45.58
2022-12-29T11:10:10.219Z,47.30
2022-12-29T11:11:10.211Z,45.20
2022-12-29T11:12:10.213Z,47.29
2022-12-29T11:13:10.209Z,46.86
2022-12-29T11:14:10.237Z,47.08
2022-12-29T11:15:10.195Z,47.30
2022-12-29T11:16:10.204Z,47.40
2022-12-29T11:17:10.159Z,46.48
2022-12-29T11:18:10.170Z,45.91
2022-12-29T11:19:10.166Z,46.43
2022-12-29T11:20:10.123Z,47.07
2022-12-29T11:21:10.130Z,47.42
2022-12-29T11:22:10.121Z,45.99
2022-12-29T11:23:10.100Z,45.05
2022-12-29T11:24:10.100Z,47.88
2022-12-29T11:25:10.089Z,45.59
2022-12-29T11:26:10.069Z,46.44
2022-12-29T11:27:10.062Z,46.35
2022-12-29T11:28:10.057Z,43.92
2022-12-29T11:29:10.049Z,44.81
2022-12-29T11:30:10.037Z,45.20
2022-12-29T11:31:10.042Z,45.14
2022-12-29T11:32:10.059Z,45.70
2022-12-29T11:33:10.012Z,45.52
2022-12-29T11:34:10.024Z,45.81
2022-12-29T11:35:09.992Z,45.44
2022-12-29T11:36:10.029Z,47.89
2022-12-29T11:37:09.991Z,45.91
2022-12-29T11:38:09.976Z,43.49
2022-12-29T11:39:14.025Z,45.10
2022-12-29T11:40:10.952Z,45.34
2022-12-29T11:41:09.940Z,46.71
2022-12-29T11:42:09.933Z,46.61
2022-12-29T11:43:09.931Z,45.65
2022-12-29T11:44:09.924Z,46.36
2022-12-29T11:45:11.276Z,45.64
2022-12-29T11:46:11.002Z,46.68
2022-12-29T11:47:09.889Z,47.30
2022-12-29T11:48:09.932Z,45.03
2022-12-29T11:49:09.886Z,46.89
2022-12-29T11:50:09.873Z,46.23
2022-12-29T11:51:09.855Z,47.81
2022-12-29T11:52:09.852Z,46.82
2022-12-29T11:53:09.838Z,46.65
2022-12-29T11:54:09.838Z,47.02
2022-12-29T11:55:09.824Z,46.00
2022-12-29T11:56:09.828Z,45.73
2022-12-29T11:57:09.800Z,47.84
2022-12-29T11:58:09.791Z,45.60
2022-12-29T11:59:09.813Z,46.82
2022-12-29T12:00:09.783Z,47.10
2022-12-29T12:01:09.759Z,47.04
2022-12-29T12:02:09.890Z,47.67
2022-12-29T12:03:09.779Z,47.90
2022-12-29T12:04:09.780Z,46.87
2022-12-29T12:05:09.730Z,44.80
2022-12-29T12:06:09.724Z,47.49
2022-12-29T12:07:09.732Z,48.22
2022-12-29T12:08:41.610Z,48.16
2022-12-29T12:09:09.714Z,49.45
2022-12-29T12:10:09.681Z,46.29
2022-12-29T12:11:09.676Z,47.47
2022-12-29T12:12:09.669Z,47.46
2022-12-29T12:13:09.653Z,46.63
2022-12-29T12:14:10.671Z,46.03
2022-12-29T12:15:09.640Z,47.06
2022-12-29T12:16:09.668Z,45.84
2022-12-29T12:17:09.623Z,44.46
2022-12-29T12:18:09.605Z,43.38
2022-12-29T12:19:09.627Z,43.44
2022-12-29T12:20:09.589Z,44.26
2022-12-29T12:21:09.593Z,44.85
2022-12-29T12:22:09.572Z,45.87
2022-12-29T12:23:09.601Z,46.28
2022-12-29T12:24:09.566Z,46.30
2022-12-29T12:25:09.589Z,45.13
2022-12-29T12:26:09.533Z,47.44
2022-12-29T12:27:09.525Z,46.13
2022-12-29T12:28:09.517Z,46.46
2022-12-29T12:29:09.538Z,46.76
2022-12-29T12:30:09.501Z,46.78
2022-12-29T12:31:09.569Z,45.89
2022-12-29T12:32:09.479Z,46.48
2022-12-29T12:33:09.497Z,45.96
2022-12-29T12:34:09.476Z,47.05
2022-12-29T12:35:09.452Z,46.69
2022-12-29T12:36:09.450Z,47.66
2022-12-29T12:37:09.435Z,45.81
2022-12-29T12:38:09.426Z,46.74
2022-12-29T12:39:09.427Z,46.31
2022-12-29T12:40:09.407Z,47.44
2022-12-29T12:41:09.436Z,47.47
2022-12-29T12:42:09.382Z,46.86
2022-12-29T12:43:10.406Z,45.72
2022-12-29T12:44:09.387Z,47.63
2022-12-29T12:45:09.358Z,45.98
2022-12-29T12:46:09.385Z,47.22
2022-12-29T12:47:09.344Z,46.27
2022-12-29T12:48:09.335Z,47.45
2022-12-29T12:49:09.331Z,47.27
2022-12-29T12:50:09.317Z,47.91
2022-12-29T12:51:09.362Z,47.24
2022-12-29T12:52:09.293Z,44.75